WEATHER DATA

YESTERDAY
Time Temp. Dewp. Hum. Wind dir Wind speed Wind gust Bar. 1h Prec. 24h Prec.
00:00 -4.4 -6.4 84 159 1.4 4.4 1009.5 0.0000 0.0000
00:10 -4.4 -6.4 84 153 1.7 3.6 1009.6 0.0000 0.0000
00:21 -4.3 -6.3 84 164 1.1 2.8 1009.5 0.0000 0.0000
00:30 -4.3 -6.3 84 194 1.1 2.5 1009.5 0.0000 0.0000
00:40 -4.3 -6.3 84 180 1.1 3.6 1009.4 0.0000 0.0000
00:50 -4.2 -6.1 85 155 1.1 3.3 1009.3 0.0000 0.0000
01:00 -4.2 -6.1 85 158 1.4 8.3 1009.3 0.0000 0.0000
01:09 -4.2 -6.1 85 174 1.1 3.3 1009.3 0.0000 0.0000
01:19 -4.2 -6.1 85 160 1.4 4.7 1009.3 0.0000 0.0000
01:30 -4.1 -6 85 157 1.1 2.8 1009.2 0.0000 0.0000
01:40 -4.1 -6 85 164 1.1 3.9 1009.2 0.0000 0.0000
01:49 -4 -5.9 85 164 1.4 3.6 1009.2 0.0000 0.0000
02:00 -4 -5.9 85 159 1.4 3.6 1009.2 0.0000 0.0000
02:10 -4 -5.9 85 158 1.1 4.4 1009.1 0.0000 0.0000
02:20 -3.9 -5.8 85 175 0.8 2.8 1009.2 0.0000 0.0000
02:30 -3.9 -5.8 85 172 1.1 2.5 1009.1 0.0000 0.0000
02:40 -3.9 -5.8 85 176 0.8 2.8 1009.1 0.0000 0.0000
02:50 -3.9 -5.8 85 165 1.1 3.3 1009.1 0.0000 0.0000
02:59 -3.8 -5.7 85 208 1.1 2.5 1009.1 0.0000 0.0000
03:10 -3.8 -5.7 85 166 0.8 2.5 1009 0.0000 0.0000
03:20 -3.8 -5.7 85 192 0.8 3.3 1008.9 0.0000 0.0000
03:30 -3.8 -5.7 85 198 0.8 2.8 1008.8 0.0000 0.0000
03:40 -3.8 -5.7 85 188 1.1 2.5 1008.7 0.0000 0.0000
03:50 -3.8 -5.7 85 180 0.8 3.3 1008.5 0.0000 0.0000
04:00 -3.8 -5.7 85 174 0.8 2.8 1008.5 0.0000 0.0000
04:10 -3.8 -5.7 85 182 1.1 2.8 1008.5 0.0000 0.0000
04:20 -3.8 -5.7 85 170 1.1 3.6 1008.5 0.0000 0.0000
04:30 -3.8 -5.7 85 230 1.1 2.5 1008.4 0.0000 0.0000
04:40 -3.8 -5.7 85 181 0.8 2.5 1008.3 0.0000 0.0000
04:51 -3.8 -5.7 85 195 1.1 2.8 1008.3 0.0000 0.0000
05:00 -3.8 -5.7 85 188 0.8 2.8 1008.3 0.0000 0.0000
05:10 -3.8 -5.7 85 172 1.1 3.6 1008.3 0.0000 0.0000
05:20 -3.8 -5.7 85 200 0.8 2.5 1008.4 0.0000 0.0000
05:31 -3.7 -5.6 85 173 1.1 2.8 1008.5 0.0000 0.0000
05:40 -3.7 -5.6 85 185 0.8 2.5 1008.5 0.0000 0.0000
05:50 -3.7 -5.6 85 157 0.8 2.5 1008.7 0.0000 0.0000
06:01 -3.7 -5.6 85 177 0.8 2.2 1008.5 0.0000 0.0000
06:11 -3.7 -5.6 85 177 0.8 2.8 1008.5 0.0000 0.0000
06:20 -3.7 -5.6 85 171 1.1 2.8 1008.5 0.0000 0.0000
06:31 -3.7 -5.6 85 185 1.1 2.5 1008.5 0.0000 0.0000
06:41 -3.7 -5.6 85 201 1.1 2.5 1008.5 0.0000 0.0000
06:51 -3.8 -5.7 85 206 0.8 2.8 1008.7 0.0000 0.0000
07:00 -3.8 -5.7 85 159 1.1 3.3 1008.5 0.0000 0.0000
07:11 -3.8 -5.7 85 160 1.1 3.3 1008.5 0.0000 0.0000
07:21 -3.8 -5.7 85 175 1.4 3.6 1008.7 0.0000 0.0000
07:31 -3.8 -5.7 85 157 1.4 3.3 1008.8 0.0000 0.0000
07:41 -3.8 -5.7 85 159 1.1 3.6 1008.8 0.0000 0.0000
07:51 -3.8 -5.7 85 175 1.1 2.8 1009 0.0000 0.0000
08:01 -3.8 -5.7 85 192 0.8 3.3 1009 0.0000 0.0000
08:11 -3.8 -5.7 85 177 1.1 3.9 1009.1 0.0000 0.0000
08:21 -3.8 -5.8 84 165 1.1 3.9 1009 0.0000 0.0000
08:31 -3.8 -5.8 84 172 1.1 2.5 1009.1 0.0000 0.0000
08:41 -3.8 -5.8 84 174 0.8 2.5 1009.2 0.0000 0.0000
08:51 -3.8 -5.8 84 198 0.8 3.3 1009.3 0.0000 0.0000
09:01 -3.8 -5.8 84 159 1.1 2.2 1009.3 0.0000 0.0000
09:11 -3.8 -5.8 84 182 0.8 1.7 1009.4 0.0000 0.0000
09:21 -3.8 -5.8 84 164 0.8 2.5 1009.3 0.0000 0.0000
09:31 -3.7 -5.6 85 164 1.1 3.3 1009.3 0.0000 0.0000
09:41 -3.7 -5.7 84 213 1.1 3.3 1009.4 0.0000 0.0000
09:51 -3.7 -5.7 84 213 1.1 3.3 1009.4 0.0000 0.0000
10:02 -3.7 -5.7 84 166 1.1 2.8 1009.5 0.0000 0.0000
10:11 -3.7 -5.7 84 153 1.1 2.8 1009.5 0.0000 0.0000
10:21 -3.6 -5.6 84 168 1.1 3.6 1009.5 0.0000 0.0000
10:32 -3.6 -5.6 84 183 0.8 2.2 1009.5 0.0000 0.0000
10:42 -3.6 -5.6 84 161 1.4 3.9 1009.6 0.0000 0.0000
10:51 -3.6 -5.6 84 189 1.1 2.5 1009.7 0.0000 0.0000
11:01 -3.5 -5.5 84 175 0.8 2.2 1009.9 0.0000 0.0000
11:12 -3.5 -5.5 84 164 0.8 2.8 1009.9 0.0000 0.0000
11:21 -3.5 -5.5 84 190 1.1 5.0 1010.1 0.0000 0.0000
11:31 -3.6 -5.6 84 163 1.4 2.8 1010.2 0.0000 0.0000
11:42 -3.6 -5.6 84 155 1.1 3.9 1010.2 0.0000 0.0000
11:52 -3.5 -5.5 84 143 0.8 2.5 1010.2 0.0000 0.0000
12:01 -3.5 -5.5 84 175 1.1 3.6 1010.2 0.0000 0.0000
12:11 -3.5 -5.7 83 158 1.4 5.0 1010.2 0.0000 0.0000
12:22 -3.4 -5.6 83 149 2.5 5.0 1010.1 0.0000 0.0000
12:32 -3.4 -5.7 82 148 2.8 6.1 1010.1 0.0000 0.0000
12:41 -3.3 -5.6 82 152 1.7 5.3 1010 0.0000 0.0000
12:52 -3.3 -5.9 80 154 3.3 6.9 1010 0.0000 0.0000
13:02 -3.3 -5.9 80 151 3.3 6.1 1010.1 0.0000 0.0000
13:12 -3.2 -5.8 80 155 2.2 5.0 1010.1 0.0000 0.0000
13:22 -3.2 -5.8 80 157 2.5 5.0 1010.1 0.0000 0.0000
13:32 -3.2 -5.8 80 154 2.2 5.0 1010 0.0000 0.0000
13:38 -3.2 -5.8 80 156 2.5 7.2 1010 0.0000 0.0000
13:48 -3.2 -5.8 80 153 2.2 5.3 1010.1 0.0000 0.0000
13:58 -3.1 -5.7 80 159 1.7 4.7 1010.1 0.0000 0.0000
14:08 -3.1 -5.7 80 157 2.2 6.1 1010 0.0000 0.0000
14:18 -3.1 -5.7 80 157 2.2 6.1 1010 0.0000 0.0000
14:28 -3.1 -5.7 80 155 2.2 5.0 1010 0.0000 0.0000
14:38 -3.2 -5.7 81 152 2.2 5.3 1010.1 0.0000 0.0000
14:48 -3 -5.6 80 153 1.7 5.0 1010.2 0.0000 0.0000
14:58 -2.8 -5.4 80 155 2.2 5.8 1010.2 0.0000 0.0000
15:08 -2.6 -5.5 78 154 2.5 6.1 1010.3 0.0000 0.0000
15:18 -2.1 -5.2 77 162 1.4 3.9 1010.3 0.0000 0.0000
15:28 -1.8 -5.2 75 152 1.7 3.9 1010.3 0.0000 0.0000
15:38 -1.6 -5.2 74 161 1.7 5.8 1010.3 0.0000 0.0000
15:49 -1.7 -5.3 74 157 1.7 3.9 1010.3 0.0000 0.0000
15:58 -1.2 -5.3 71 157 1.7 4.7 1010.3 0.0000 0.0000
16:08 -0.9 -5.1 70 168 1.4 4.7 1010.3 0.0000 0.0000
16:18 -0.6 -5.2 68 151 1.4 3.6 1010.4 0.0000 0.0000
16:29 -0.6 -5.5 66 157 1.4 2.8 1010.4 0.0000 0.0000
16:38 -1.1 -5.7 68 164 1.4 3.6 1010.5 0.0000 0.0000
16:48 -1.2 -5.8 68 160 1.1 2.8 1010.5 0.0000 0.0000
16:59 -1.3 -5.9 68 167 1.1 2.5 1010.5 0.0000 0.0000
17:09 -1.1 -5.8 67 168 1.4 4.4 1010.6 0.0000 0.0000
17:18 -1.3 -6.2 66 169 1.1 2.5 1010.6 0.0000 0.0000
17:28 -1.6 -6.3 67 192 1.1 2.5 1010.7 0.0000 0.0000
17:39 -1.9 -6.4 68 187 1.1 2.5 1010.7 0.0000 0.0000
17:49 -2.1 -6.6 68 186 0.8 1.7 1010.8 0.0000 0.0000
17:58 -2.2 -6.9 67 159 1.4 4.4 1010.9 0.0000 0.0000
18:09 -2.1 -7.3 64 174 1.4 3.3 1011.1 0.0000 0.0000
18:19 -2.2 -7.6 63 174 1.1 2.8 1011.3 0.0000 0.0000
18:28 -2.2 -7.8 62 237 1.4 3.6 1011.4 0.0000 0.0000
18:39 -2.3 -8.1 61 177 1.1 4.4 1011.5 0.0000 0.0000
18:49 -2.4 -8.4 60 152 0.8 2.5 1011.6 0.0000 0.0000
18:59 -2.6 -8.5 60 216 0.8 2.2 1011.6 0.0000 0.0000
19:08 -2.7 -8.8 59 175 1.4 3.6 1011.7 0.0000 0.0000
19:19 -2.8 -8.9 59 161 1.1 3.6 1011.8 0.0000 0.0000
19:29 -2.9 -9 59 166 1.4 4.4 1011.8 0.0000 0.0000
19:39 -3.1 -9 60 242 0.8 2.8 1012 0.0000 0.0000
19:49 -3.2 -8.9 61 161 1.1 4.4 1012 0.0000 0.0000
19:59 -3.3 -9 61 198 0.8 2.5 1012.1 0.0000 0.0000
20:09 -3.4 -9.1 61 198 0.8 2.8 1012.3 0.0000 0.0000
20:19 -3.5 -9 62 149 1.4 2.8 1012.4 0.0000 0.0000
20:29 -3.6 -9 63 198 0.8 1.4 1012.3 0.0000 0.0000
20:39 -3.6 -8.8 64 168 1.1 2.8 1012.3 0.0000 0.0000
20:49 -3.7 -8.9 64 225 0.3 2.2 1012.3 0.0000 0.0000
21:00 -3.8 -9 64 178 1.1 3.6 1012.3 0.0000 0.0000
21:09 -3.8 -8.8 65 228 0.8 3.6 1012.4 0.0000 0.0000
21:19 -3.7 -8.7 65 157 1.7 4.7 1012.4 0.0000 0.0000
21:29 -3.7 -8.9 64 157 1.7 4.7 1012.3 0.0000 0.0000
21:39 -3.8 -8.8 65 157 1.7 4.7 1012.3 0.0000 0.0000
21:49 -3.9 -8.9 65 142 0.8 2.2 1012.3 0.0000 0.0000
21:59 -4 -9 65 236 0.8 1.7 1012.3 0.0000 0.0000
22:10 -4 -8.8 66 196 1.1 2.5 1012.4 0.0000 0.0000
22:19 -4 -8.8 66 146 1.1 3.3 1012.4 0.0000 0.0000
22:29 -4 -8.8 66 180 1.1 3.6 1012.5 0.0000 0.0000
22:40 -4 -8.8 66 168 1.4 3.6 1012.6 0.0000 0.0000
22:50 -4 -8.6 67 185 1.1 2.8 1012.6 0.0000 0.0000
22:59 -4 -8.6 67 212 0.8 2.5 1012.6 0.0000 0.0000
23:09 -4 -8.6 67 156 1.4 5.3 1012.7 0.0000 0.0000
23:20 -4.1 -8.6 68 162 1.1 2.8 1012.6 0.0000 0.0000
23:29 -4.1 -8.6 68 182 0.8 3.3 1012.7 0.0000 0.0000
23:39 -4.2 -8.7 68 181 1.1 3.6 1012.7 0.0000 0.0000
23:50 -4.3 -8.8 68 152 1.1 4.7 1012.7 0.0000 0.0000

DAY STATISTICS

2018-02-24
TEMPERATURE
AVERAGE
-3.4
HIGH
-0.6
16:18
LOW
-4.4
00:00
PRESSURE
AVERAGE
1010.1
HIGH
1012.7
23:09
LOW
1008.3
04:40
DEWPOINT
AVERAGE
-6.5
HIGH
-5.1
16:08
LOW
-9.1
20:09
HUMIDITY
AVERAGE
77
HIGH
85
00:50
LOW
59
19:08
WIND SPEED
AVERAGE
1.3
HIGH
3.3
12:52
WIND GUST
AVERAGE
3.5
HIGH
8.3
01:00
WIND DIRECTION
PREVAILING
S
64.6%
N
0.0
NE
0.0
E
0.0
SE
27.1
S
64.6
SW
8.3
W
0.0
NW
0.0
PRECIPITATION
RAIN HOUR
0.0
RAIN DAY
0.0
TEMPERATURE (°C)
LOW
-4.4
HIGH
-0.6
AVERAGE
-3.4
PRESSURE (hpa)
LOW
1008.3
HIGH
1012.7
AVERAGE
1010.1
DEVICE